createdAt,value
2019-04-21T00:00:13.180Z,0.00
2019-04-21T00:01:12.395Z,0.00
2019-04-21T00:02:09.144Z,0.00
2019-04-21T00:03:15.207Z,0.00
2019-04-21T00:04:21.117Z,0.00
2019-04-21T00:05:35.157Z,0.00
2019-04-21T00:06:31.556Z,0.00
2019-04-21T00:07:29.684Z,0.00
2019-04-21T00:08:30.959Z,0.00
2019-04-21T00:09:36.027Z,0.00
2019-04-21T00:10:36.071Z,0.00
2019-04-21T00:11:29.879Z,0.00
2019-04-21T00:12:27.314Z,0.00
2019-04-21T00:13:23.831Z,0.00
2019-04-21T00:14:17.913Z,0.00
2019-04-21T00:15:19.387Z,0.00
2019-04-21T00:16:12.035Z,0.00
2019-04-21T00:17:12.980Z,0.00
2019-04-21T00:18:10.443Z,0.00
2019-04-21T00:19:14.327Z,0.00
2019-04-21T00:20:17.792Z,0.00
2019-04-21T00:21:15.222Z,0.00
2019-04-21T00:22:19.408Z,0.00
2019-04-21T00:23:24.292Z,0.00
2019-04-21T00:24:21.541Z,0.00
2019-04-21T00:25:25.214Z,0.00
2019-04-21T00:26:25.377Z,0.00
2019-04-21T00:27:24.467Z,0.00
2019-04-21T00:28:33.169Z,0.00
2019-04-21T00:29:31.389Z,0.00
2019-04-21T00:30:26.941Z,0.00
2019-04-21T00:31:24.638Z,0.00
2019-04-21T00:32:22.182Z,0.00
2019-04-21T00:33:13.887Z,0.00
2019-04-21T00:34:06.714Z,0.00
2019-04-21T00:35:11.688Z,0.00
2019-04-21T00:36:13.336Z,0.00
2019-04-21T00:37:18.917Z,0.00
2019-04-21T00:38:25.026Z,0.00
2019-04-21T00:39:41.572Z,0.00
2019-04-21T00:40:27.811Z,0.00
2019-04-21T00:41:29.682Z,0.00
2019-04-21T00:42:22.739Z,0.00
2019-04-21T00:43:23.373Z,0.00
2019-04-21T00:44:17.342Z,0.00
2019-04-21T00:45:20.636Z,0.00
2019-04-21T00:46:17.482Z,0.00
2019-04-21T00:47:28.944Z,0.00
2019-04-21T00:48:32.952Z,0.00
2019-04-21T00:49:19.695Z,0.00
2019-04-21T00:50:27.863Z,0.00
2019-04-21T00:51:33.154Z,0.00
2019-04-21T00:52:43.661Z,0.00
2019-04-21T00:53:37.125Z,0.00
2019-04-21T00:54:33.109Z,0.00
2019-04-21T00:56:30.427Z,0.00
2019-04-21T00:57:32.571Z,0.00
2019-04-21T00:58:28.678Z,0.00
2019-04-21T00:59:28.205Z,0.00
2019-04-21T01:00:42.241Z,0.00
2019-04-21T01:01:28.398Z,0.00
2019-04-21T01:02:26.437Z,0.00
2019-04-21T01:03:26.427Z,0.00
2019-04-21T01:04:30.663Z,0.00
2019-04-21T01:05:33.867Z,0.00
2019-04-21T01:06:29.082Z,0.00
2019-04-21T01:07:30.466Z,0.00
2019-04-21T01:08:25.150Z,0.00
2019-04-21T01:09:25.933Z,0.00
2019-04-21T01:10:17.476Z,0.00
2019-04-21T01:11:23.846Z,0.00
2019-04-21T01:12:32.110Z,0.00
2019-04-21T01:13:27.286Z,0.00
2019-04-21T01:14:30.092Z,0.00
2019-04-21T01:15:32.519Z,0.00
2019-04-21T01:16:27.590Z,0.00
2019-04-21T01:17:23.213Z,0.00
2019-04-21T01:18:22.981Z,0.00
2019-04-21T01:19:21.130Z,0.00
2019-04-21T01:20:16.162Z,0.00
2019-04-21T01:21:13.739Z,0.00
2019-04-21T01:22:02.590Z,0.00
2019-04-21T01:23:02.501Z,0.00
2019-04-21T01:24:11.823Z,0.00
2019-04-21T01:25:13.307Z,0.00
2019-04-21T01:26:18.018Z,0.00
2019-04-21T01:27:11.154Z,0.00
2019-04-21T01:28:18.918Z,0.00
2019-04-21T01:29:22.434Z,0.00
2019-04-21T01:30:22.318Z,0.00
2019-04-21T01:31:17.530Z,0.00
2019-04-21T01:32:23.718Z,0.00
2019-04-21T01:33:27.757Z,0.00
2019-04-21T01:34:22.022Z,0.00
2019-04-21T01:35:21.434Z,0.00
2019-04-21T01:36:18.110Z,0.00
2019-04-21T01:37:25.198Z,0.00
2019-04-21T01:38:21.610Z,0.00
2019-04-21T01:39:29.411Z,0.00
2019-04-21T01:41:25.496Z,0.00
2019-04-21T01:42:21.138Z,0.00
2019-04-21T01:43:20.080Z,0.00
2019-04-21T01:44:28.074Z,0.00
2019-04-21T01:45:22.442Z,0.00
2019-04-21T01:46:13.899Z,0.00
2019-04-21T01:47:17.481Z,0.00
2019-04-21T01:48:15.884Z,0.00
2019-04-21T01:49:11.525Z,0.00
2019-04-21T01:50:19.827Z,0.00
2019-04-21T01:51:16.039Z,0.00
2019-04-21T01:52:24.059Z,0.00
2019-04-21T01:53:23.894Z,0.00
2019-04-21T01:54:21.924Z,0.00
2019-04-21T01:55:18.337Z,0.00
2019-04-21T01:56:17.981Z,0.00
2019-04-21T01:57:19.419Z,0.00
2019-04-21T01:58:11.717Z,0.00
2019-04-21T01:59:06.891Z,0.00
2019-04-21T02:00:12.261Z,0.00
2019-04-21T02:01:21.652Z,0.00
2019-04-21T02:02:20.342Z,0.00
2019-04-21T02:03:34.421Z,0.00
2019-04-21T02:04:23.989Z,0.00
2019-04-21T02:05:27.012Z,0.00
2019-04-21T02:06:21.426Z,0.00
2019-04-21T02:07:20.643Z,0.00
2019-04-21T02:08:20.167Z,0.00
2019-04-21T02:09:15.393Z,0.00
2019-04-21T02:10:20.870Z,0.00
2019-04-21T02:11:24.530Z,0.00
2019-04-21T02:12:21.007Z,0.00
2019-04-21T02:13:17.179Z,0.00
2019-04-21T02:14:23.552Z,0.00
2019-04-21T02:15:26.869Z,0.00
2019-04-21T02:16:19.039Z,0.00
2019-04-21T02:17:19.772Z,0.00
2019-04-21T02:18:17.014Z,0.00
2019-04-21T02:19:13.876Z,0.00
2019-04-21T02:20:12.009Z,0.00
2019-04-21T02:21:14.341Z,0.00
2019-04-21T02:22:19.248Z,0.00
2019-04-21T02:23:28.263Z,0.00
2019-04-21T02:24:20.463Z,0.00
2019-04-21T02:25:20.938Z,0.00
2019-04-21T02:26:16.462Z,0.00
2019-04-21T02:27:19.231Z,0.00
2019-04-21T02:28:22.418Z,0.00
2019-04-21T02:29:20.654Z,0.00
2019-04-21T02:30:29.415Z,0.00
2019-04-21T02:31:30.528Z,0.00
2019-04-21T02:32:28.633Z,0.00
2019-04-21T02:33:36.136Z,0.00
2019-04-21T02:34:25.880Z,0.00
2019-04-21T02:36:44.814Z,0.00
2019-04-21T02:37:36.695Z,0.00
2019-04-21T02:38:34.487Z,0.00
2019-04-21T02:40:29.795Z,0.00
2019-04-21T02:41:31.157Z,0.00
2019-04-21T02:42:33.018Z,0.00
2019-04-21T02:44:31.571Z,0.00
2019-04-21T02:45:40.928Z,0.00
2019-04-21T02:46:31.304Z,0.00
2019-04-21T02:47:38.961Z,0.00
2019-04-21T02:48:28.729Z,0.00
2019-04-21T02:50:43.378Z,0.00
2019-04-21T02:51:27.950Z,0.00
2019-04-21T02:52:31.742Z,0.00
2019-04-21T02:53:30.536Z,0.00
2019-04-21T02:55:22.067Z,0.00
2019-04-21T02:56:37.525Z,0.00
2019-04-21T02:57:25.844Z,0.00
2019-04-21T02:58:34.732Z,0.00
2019-04-21T02:59:22.678Z,0.00
2019-04-21T03:02:35.484Z,0.00
2019-04-21T03:03:29.545Z,0.00
2019-04-21T03:04:28.205Z,0.00
2019-04-21T03:05:29.120Z,0.00
2019-04-21T03:06:31.447Z,0.00
2019-04-21T03:07:19.180Z,0.00
2019-04-21T03:08:40.395Z,0.00
2019-04-21T03:09:24.415Z,0.00
2019-04-21T03:10:26.636Z,0.00
2019-04-21T03:11:21.399Z,0.00
2019-04-21T03:12:18.167Z,0.00
2019-04-21T03:13:29.763Z,0.00
2019-04-21T03:18:24.321Z,0.00
2019-04-21T03:19:31.291Z,0.00
2019-04-21T03:20:23.806Z,0.00
2019-04-21T03:21:22.072Z,0.00
2019-04-21T03:22:38.200Z,0.00
2019-04-21T03:24:25.841Z,0.00
2019-04-21T03:25:39.113Z,0.00
2019-04-21T03:26:33.903Z,0.00
2019-04-21T03:28:22.672Z,0.00
2019-04-21T03:29:28.846Z,0.00
2019-04-21T03:32:55.385Z,0.00
2019-04-21T03:34:51.467Z,0.00
2019-04-21T03:36:02.139Z,0.00
2019-04-21T03:37:28.470Z,0.00
2019-04-21T03:38:37.485Z,0.00
2019-04-21T03:39:17.998Z,0.00
2019-04-21T03:41:26.881Z,0.00
2019-04-21T03:43:23.162Z,0.00
2019-04-21T03:44:26.673Z,0.00
2019-04-21T03:45:30.968Z,0.00
2019-04-21T03:46:28.230Z,0.00
2019-04-21T03:47:22.971Z,0.00
2019-04-21T03:48:38.288Z,0.00
2019-04-21T03:49:28.856Z,0.00
2019-04-21T03:51:21.415Z,0.00
2019-04-21T03:52:38.809Z,0.00
2019-04-21T03:53:43.789Z,0.00
2019-04-21T03:54:16.053Z,0.00
2019-04-21T03:56:27.214Z,5.63
2019-04-21T03:57:38.044Z,5.63
2019-04-21T03:59:21.009Z,5.63
2019-04-21T04:00:34.582Z,5.63
2019-04-21T04:02:22.974Z,5.63
2019-04-21T04:03:42.074Z,5.63
2019-04-21T04:04:30.632Z,11.25
2019-04-21T04:05:24.321Z,11.25
2019-04-21T04:06:20.598Z,11.25
2019-04-21T04:08:38.926Z,11.25
2019-04-21T04:09:41.740Z,11.25
2019-04-21T04:10:40.749Z,11.25
2019-04-21T04:12:13.448Z,16.88
2019-04-21T04:13:34.183Z,16.88
2019-04-21T04:15:20.537Z,16.88
2019-04-21T04:17:16.895Z,22.50
2019-04-21T04:18:28.311Z,22.50
2019-04-21T04:19:30.081Z,22.50
2019-04-21T04:20:22.242Z,28.13
2019-04-21T04:22:24.908Z,28.13
2019-04-21T04:24:24.436Z,28.13
2019-04-21T04:25:17.468Z,28.13
2019-04-21T04:27:33.672Z,33.75
2019-04-21T04:28:18.946Z,33.75
2019-04-21T04:29:19.823Z,33.75
2019-04-21T04:31:27.145Z,39.38
2019-04-21T04:32:23.230Z,39.38
2019-04-21T04:33:21.311Z,39.38
2019-04-21T04:34:22.339Z,39.38
2019-04-21T04:36:31.147Z,39.38
2019-04-21T04:37:28.740Z,45.00
2019-04-21T04:38:26.713Z,45.00
2019-04-21T04:39:36.536Z,45.00
2019-04-21T04:40:19.676Z,50.63
2019-04-21T04:41:33.172Z,56.25
2019-04-21T04:42:27.006Z,61.88
2019-04-21T04:43:23.294Z,61.88
2019-04-21T04:44:36.445Z,61.88
2019-04-21T04:45:26.448Z,61.88
2019-04-21T04:46:20.331Z,61.88
2019-04-21T04:47:18.423Z,61.88
2019-04-21T04:48:24.427Z,61.88
2019-04-21T04:49:23.656Z,61.88
2019-04-21T04:50:09.952Z,61.88
2019-04-21T04:51:14.510Z,61.88
2019-04-21T04:53:20.458Z,61.88
2019-04-21T04:54:19.878Z,61.88
2019-04-21T04:55:19.069Z,67.50
2019-04-21T04:57:40.090Z,67.50
2019-04-21T04:58:54.620Z,73.13
2019-04-21T05:00:18.097Z,78.75
2019-04-21T05:01:33.893Z,78.75
2019-04-21T05:03:18.910Z,78.75
2019-04-21T05:04:15.874Z,78.75
2019-04-21T05:05:23.804Z,84.38
2019-04-21T05:06:28.085Z,84.38
2019-04-21T05:07:17.290Z,90.00
2019-04-21T05:08:24.367Z,90.00
2019-04-21T05:09:15.111Z,95.63
2019-04-21T05:11:23.383Z,95.63
2019-04-21T05:12:09.271Z,95.63
2019-04-21T05:13:16.144Z,95.63
2019-04-21T05:16:26.370Z,95.63
2019-04-21T05:17:14.513Z,95.63
2019-04-21T05:18:35.082Z,101.25
2019-04-21T05:20:13.656Z,112.50
2019-04-21T05:22:14.139Z,112.50
2019-04-21T05:23:05.862Z,106.88
2019-04-21T05:24:02.146Z,112.50
2019-04-21T05:24:59.468Z,106.88
2019-04-21T05:25:54.293Z,106.88
2019-04-21T05:26:59.576Z,118.13
2019-04-21T05:27:56.335Z,112.50
2019-04-21T05:28:50.981Z,112.50
2019-04-21T05:30:15.327Z,112.50
2019-04-21T05:31:09.082Z,118.13
2019-04-21T05:32:01.472Z,118.13
2019-04-21T05:33:05.581Z,118.13
2019-04-21T05:34:03.134Z,112.50
2019-04-21T05:35:01.564Z,112.50
2019-04-21T05:36:07.681Z,106.88
2019-04-21T05:37:03.941Z,101.25
2019-04-21T05:38:03.028Z,101.25
2019-04-21T05:38:58.387Z,106.88
2019-04-21T05:39:57.957Z,112.50
2019-04-21T05:40:57.618Z,118.13
2019-04-21T05:41:50.621Z,123.75
2019-04-21T05:42:55.754Z,112.50
2019-04-21T05:44:03.837Z,106.88
2019-04-21T05:45:08.089Z,106.88
2019-04-21T05:46:21.241Z,106.88
2019-04-21T05:47:15.835Z,106.88
2019-04-21T05:48:12.235Z,106.88
2019-04-21T05:49:05.094Z,106.88
2019-04-21T05:50:00.975Z,106.88
2019-04-21T05:51:01.980Z,106.88
2019-04-21T05:51:55.624Z,106.88
2019-04-21T05:52:57.308Z,106.88
2019-04-21T05:54:10.573Z,106.88
2019-04-21T05:55:01.189Z,106.88
2019-04-21T05:56:07.075Z,106.88
2019-04-21T05:56:59.810Z,106.88
2019-04-21T05:58:02.583Z,106.88
2019-04-21T05:59:03.373Z,106.88
2019-04-21T06:00:02.645Z,106.88
2019-04-21T06:02:06.111Z,112.50
2019-04-21T06:03:04.056Z,112.50
2019-04-21T06:04:03.608Z,112.50
2019-04-21T06:06:10.762Z,112.50
2019-04-21T06:07:06.159Z,112.50
2019-04-21T06:08:00.453Z,112.50
2019-04-21T06:08:59.515Z,112.50
2019-04-21T06:09:59.456Z,112.50
2019-04-21T06:11:02.072Z,112.50
2019-04-21T06:12:02.972Z,118.13
2019-04-21T06:13:02.294Z,118.13
2019-04-21T06:14:06.069Z,118.13
2019-04-21T06:15:12.323Z,118.13
2019-04-21T06:16:04.948Z,123.75
2019-04-21T06:17:03.953Z,123.75
2019-04-21T06:18:07.905Z,123.75
2019-04-21T06:18:58.764Z,123.75
2019-04-21T06:20:01.383Z,129.38
2019-04-21T06:20:59.451Z,146.25
2019-04-21T06:21:57.441Z,140.63
2019-04-21T06:22:57.923Z,135.00
2019-04-21T06:23:57.319Z,140.63
2019-04-21T06:26:28.205Z,140.63
2019-04-21T06:27:17.659Z,146.25
2019-04-21T06:27:59.981Z,163.13
2019-04-21T06:28:59.910Z,168.75
2019-04-21T06:30:01.529Z,140.63
2019-04-21T06:32:52.763Z,140.63
2019-04-21T06:34:00.518Z,140.63
2019-04-21T06:35:14.889Z,140.63
2019-04-21T06:37:14.658Z,146.25
2019-04-21T06:37:56.544Z,146.25
2019-04-21T06:39:06.380Z,168.75
2019-04-21T06:40:15.170Z,191.25
2019-04-21T06:41:07.855Z,185.63
2019-04-21T06:41:58.481Z,168.75
2019-04-21T06:43:11.345Z,168.75
2019-04-21T06:44:09.489Z,157.50
2019-04-21T06:45:06.208Z,157.50
2019-04-21T06:46:02.211Z,168.75
2019-04-21T06:47:01.761Z,174.38
2019-04-21T06:47:57.827Z,174.38
2019-04-21T06:48:59.939Z,168.75
2019-04-21T06:49:58.599Z,168.75
2019-04-21T06:51:06.869Z,168.75
2019-04-21T06:52:07.319Z,174.38
2019-04-21T06:53:10.783Z,180.00
2019-04-21T06:55:03.326Z,208.13
2019-04-21T06:56:00.006Z,191.25
2019-04-21T06:57:10.091Z,185.63
2019-04-21T06:58:00.693Z,185.63
2019-04-21T06:58:55.506Z,185.63
2019-04-21T06:59:57.194Z,185.63
2019-04-21T07:00:56.390Z,191.25
2019-04-21T07:01:56.676Z,191.25
2019-04-21T07:04:06.867Z,208.13
2019-04-21T07:05:03.547Z,219.38
2019-04-21T07:06:04.681Z,213.75
2019-04-21T07:06:53.697Z,219.38
2019-04-21T07:08:14.845Z,208.13
2019-04-21T07:09:07.437Z,213.75
2019-04-21T07:09:59.805Z,213.75
2019-04-21T07:10:59.488Z,225.00
2019-04-21T07:11:56.811Z,219.38
2019-04-21T07:12:53.516Z,225.00
2019-04-21T07:14:14.832Z,225.00
2019-04-21T07:14:56.269Z,247.50
2019-04-21T07:16:00.586Z,258.75
2019-04-21T07:16:59.596Z,241.88
2019-04-21T07:17:57.807Z,230.63
2019-04-21T07:19:05.931Z,230.63
2019-04-21T07:19:57.102Z,241.88
2019-04-21T07:20:53.215Z,258.75
2019-04-21T07:21:51.328Z,264.38
2019-04-21T07:22:54.798Z,258.75
2019-04-21T07:24:03.147Z,303.75
2019-04-21T07:24:58.680Z,315.00
2019-04-21T07:25:54.899Z,326.25
2019-04-21T07:26:55.659Z,348.75
2019-04-21T07:27:57.084Z,348.75
2019-04-21T07:29:01.851Z,354.38
2019-04-21T07:29:59.650Z,331.88
2019-04-21T07:30:59.505Z,343.13
2019-04-21T07:31:59.893Z,376.88
2019-04-21T07:32:56.525Z,382.50
2019-04-21T07:35:00.134Z,399.38
2019-04-21T07:35:54.105Z,399.38
2019-04-21T07:36:56.073Z,399.38
2019-04-21T07:37:53.457Z,405.00
2019-04-21T07:38:49.846Z,405.00
2019-04-21T07:39:53.141Z,410.63
2019-04-21T07:40:48.382Z,416.25
2019-04-21T07:41:49.642Z,416.25
2019-04-21T07:42:47.722Z,416.25
2019-04-21T07:43:42.856Z,421.88
2019-04-21T07:44:46.390Z,421.88
2019-04-21T07:45:45.985Z,421.88
2019-04-21T07:46:45.206Z,427.50
2019-04-21T07:47:53.099Z,427.50
2019-04-21T07:48:53.553Z,433.13
2019-04-21T07:49:55.215Z,433.13
2019-04-21T07:50:52.046Z,438.75
2019-04-21T07:52:53.234Z,444.38
2019-04-21T07:53:59.586Z,444.38
2019-04-21T07:55:01.640Z,450.00
2019-04-21T07:55:31.785Z,450.00
2019-04-21T07:56:34.857Z,444.38
2019-04-21T07:57:44.201Z,444.38
2019-04-21T07:58:56.266Z,450.00
2019-04-21T08:00:08.384Z,444.38
2019-04-21T08:01:04.781Z,444.38
2019-04-21T08:01:50.039Z,444.38
2019-04-21T08:02:51.159Z,444.38
2019-04-21T08:03:56.960Z,450.00
2019-04-21T08:05:02.969Z,450.00
2019-04-21T08:05:52.614Z,455.63
2019-04-21T08:06:52.091Z,450.00
2019-04-21T08:07:52.031Z,455.63
2019-04-21T08:08:48.970Z,450.00
2019-04-21T08:09:46.441Z,455.63
2019-04-21T08:10:44.153Z,455.63
2019-04-21T08:11:44.285Z,455.63
2019-04-21T08:12:47.768Z,455.63
2019-04-21T08:14:00.598Z,455.63
2019-04-21T08:14:52.036Z,455.63
2019-04-21T08:16:04.724Z,455.63
2019-04-21T08:16:54.000Z,455.63
2019-04-21T08:17:47.288Z,461.25
2019-04-21T08:18:45.537Z,466.88
2019-04-21T08:19:43.049Z,478.13
2019-04-21T08:20:50.527Z,523.13
2019-04-21T08:21:53.062Z,596.25
2019-04-21T08:22:51.025Z,680.63
2019-04-21T08:23:48.362Z,753.75
2019-04-21T08:24:51.877Z,770.63
2019-04-21T08:25:58.889Z,821.25
2019-04-21T08:26:51.549Z,787.50
2019-04-21T08:28:58.882Z,663.75
2019-04-21T08:30:04.459Z,646.88
2019-04-21T08:30:47.853Z,641.25
2019-04-21T08:33:05.480Z,624.38
2019-04-21T08:34:55.956Z,601.88
2019-04-21T08:36:47.701Z,607.50
2019-04-21T08:37:43.352Z,601.88
2019-04-21T08:38:51.495Z,596.25
2019-04-21T08:39:56.512Z,585.00
2019-04-21T08:41:05.141Z,568.13
2019-04-21T08:41:48.455Z,556.88
2019-04-21T08:42:48.577Z,556.88
2019-04-21T08:43:44.705Z,551.25
2019-04-21T08:44:46.842Z,545.63
2019-04-21T08:45:46.859Z,540.00
2019-04-21T08:46:49.216Z,562.50
2019-04-21T08:47:50.285Z,613.13
2019-04-21T08:48:52.769Z,652.50
2019-04-21T08:49:49.162Z,646.88
2019-04-21T08:50:47.533Z,635.63
2019-04-21T08:51:48.560Z,630.00
2019-04-21T08:52:48.840Z,601.88
2019-04-21T08:53:47.574Z,596.25
2019-04-21T08:54:51.530Z,601.88
2019-04-21T08:55:50.784Z,545.63
2019-04-21T08:56:46.708Z,517.50
2019-04-21T08:57:50.849Z,489.38
2019-04-21T08:58:50.626Z,483.75
2019-04-21T08:59:46.002Z,483.75
2019-04-21T09:00:47.339Z,489.38
2019-04-21T09:01:43.069Z,483.75
2019-04-21T09:02:49.513Z,483.75
2019-04-21T09:03:43.255Z,483.75
2019-04-21T09:04:40.065Z,483.75
2019-04-21T09:05:46.721Z,483.75
2019-04-21T09:07:10.555Z,483.75
2019-04-21T09:07:49.300Z,478.13
2019-04-21T09:08:49.693Z,478.13
2019-04-21T09:10:39.578Z,478.13
2019-04-21T09:11:41.965Z,478.13
2019-04-21T09:12:43.149Z,472.50
2019-04-21T09:13:42.566Z,472.50
2019-04-21T09:14:41.917Z,472.50
2019-04-21T09:15:41.941Z,472.50
2019-04-21T09:16:40.725Z,478.13
2019-04-21T09:17:37.732Z,478.13
2019-04-21T09:18:38.073Z,478.13
2019-04-21T09:19:54.992Z,472.50
2019-04-21T09:20:47.337Z,433.13
2019-04-21T09:21:45.513Z,382.50
2019-04-21T09:22:41.535Z,365.63
2019-04-21T09:23:39.146Z,450.00
2019-04-21T09:24:42.699Z,483.75
2019-04-21T09:25:48.327Z,489.38
2019-04-21T09:26:43.519Z,495.00
2019-04-21T09:27:42.459Z,500.63
2019-04-21T09:28:35.490Z,506.25
2019-04-21T09:29:33.206Z,511.88
2019-04-21T09:30:24.079Z,511.88
2019-04-21T09:31:28.981Z,517.50
2019-04-21T09:32:26.800Z,523.13
2019-04-21T09:33:28.069Z,523.13
2019-04-21T09:34:30.499Z,528.75
2019-04-21T09:35:24.120Z,545.63
2019-04-21T09:36:25.417Z,540.00
2019-04-21T09:37:36.692Z,500.63
2019-04-21T09:38:29.930Z,416.25
2019-04-21T09:39:25.649Z,343.13
2019-04-21T09:40:30.097Z,264.38
2019-04-21T09:41:25.538Z,247.50
2019-04-21T09:42:33.349Z,241.88
2019-04-21T09:43:30.759Z,241.88
2019-04-21T09:44:30.471Z,236.25
2019-04-21T09:45:22.957Z,241.88
2019-04-21T09:46:23.196Z,236.25
2019-04-21T09:47:24.949Z,236.25
2019-04-21T09:48:24.225Z,236.25
2019-04-21T09:49:27.033Z,241.88
2019-04-21T09:50:22.169Z,253.13
2019-04-21T09:51:21.915Z,320.63
2019-04-21T09:52:25.715Z,343.13
2019-04-21T09:53:28.777Z,376.88
2019-04-21T09:54:27.742Z,489.38
2019-04-21T09:55:24.367Z,483.75
2019-04-21T09:56:32.469Z,343.13
2019-04-21T09:57:31.381Z,326.25
2019-04-21T09:58:29.343Z,241.88
2019-04-21T09:59:28.151Z,230.63
2019-04-21T10:00:25.341Z,230.63
2019-04-21T10:01:28.787Z,230.63
2019-04-21T10:02:32.782Z,230.63
2019-04-21T10:03:21.255Z,230.63
2019-04-21T10:04:20.962Z,230.63
2019-04-21T10:05:21.436Z,236.25
2019-04-21T10:06:20.870Z,230.63
2019-04-21T10:07:26.470Z,236.25
2019-04-21T10:08:20.629Z,236.25
2019-04-21T10:09:21.799Z,236.25
2019-04-21T10:10:20.479Z,236.25
2019-04-21T10:11:21.056Z,236.25
2019-04-21T10:12:20.338Z,241.88
2019-04-21T10:13:20.862Z,241.88
2019-04-21T10:14:20.169Z,241.88
2019-04-21T10:15:23.245Z,241.88
2019-04-21T10:16:20.017Z,241.88
2019-04-21T10:17:19.942Z,247.50
2019-04-21T10:18:19.869Z,247.50
2019-04-21T10:19:20.999Z,253.13
2019-04-21T10:20:20.165Z,253.13
2019-04-21T10:21:19.774Z,247.50
2019-04-21T10:22:21.008Z,247.50
2019-04-21T10:23:19.482Z,247.50
2019-04-21T10:24:20.232Z,253.13
2019-04-21T10:25:20.743Z,253.13
2019-04-21T10:26:19.256Z,253.13
2019-04-21T10:27:19.194Z,253.13
2019-04-21T10:28:19.156Z,253.13
2019-04-21T10:29:24.233Z,258.75
2019-04-21T10:30:20.109Z,253.13
2019-04-21T10:31:18.869Z,281.25
2019-04-21T10:32:21.617Z,376.88
2019-04-21T10:33:18.719Z,478.13
2019-04-21T10:34:19.145Z,517.50
2019-04-21T10:35:21.162Z,967.50
2019-04-21T10:36:19.107Z,810.00
2019-04-21T10:37:18.829Z,826.88
2019-04-21T10:38:27.971Z,607.50
2019-04-21T10:39:18.261Z,562.50
2019-04-21T10:40:18.185Z,343.13
2019-04-21T10:41:19.263Z,444.38
2019-04-21T10:42:19.423Z,275.63
2019-04-21T10:43:22.071Z,388.13
2019-04-21T10:44:19.005Z,416.25
2019-04-21T10:45:18.898Z,950.63
2019-04-21T10:46:19.057Z,1333.13
2019-04-21T10:47:18.605Z,1676.25
2019-04-21T10:48:18.819Z,1496.25
2019-04-21T10:49:18.896Z,1175.63
2019-04-21T10:50:18.359Z,697.50
2019-04-21T10:51:17.346Z,725.63
2019-04-21T10:52:17.274Z,1434.38
2019-04-21T10:53:17.196Z,1996.88
2019-04-21T10:54:17.886Z,2030.63
2019-04-21T10:55:32.103Z,1046.25
2019-04-21T10:56:25.217Z,1040.63
2019-04-21T10:57:16.897Z,337.50
2019-04-21T10:58:18.210Z,303.75
2019-04-21T10:59:16.750Z,292.50
2019-04-21T11:00:17.548Z,315.00
2019-04-21T11:01:16.793Z,438.75
2019-04-21T11:02:17.054Z,967.50
2019-04-21T11:03:17.131Z,1558.13
2019-04-21T11:04:21.839Z,1833.75
2019-04-21T11:05:16.777Z,1912.50
2019-04-21T11:06:16.887Z,1878.75
2019-04-21T11:07:19.582Z,1861.88
2019-04-21T11:08:24.724Z,1833.75
2019-04-21T11:09:16.025Z,1822.50
2019-04-21T11:10:16.175Z,1800.00
2019-04-21T11:11:16.256Z,1794.38
2019-04-21T11:12:15.786Z,1755.00
2019-04-21T11:13:16.605Z,1732.50
2019-04-21T11:14:15.639Z,1721.25
2019-04-21T11:15:16.973Z,1698.75
2019-04-21T11:16:15.505Z,1693.13
2019-04-21T11:17:16.448Z,1681.88
2019-04-21T11:18:15.713Z,1665.00
2019-04-21T11:19:15.924Z,1676.25
2019-04-21T11:20:15.213Z,1710.00
2019-04-21T11:21:16.538Z,1946.25
2019-04-21T11:22:15.076Z,3560.63
2019-04-21T11:23:16.372Z,4280.63
2019-04-21T11:24:16.250Z,3526.88
2019-04-21T11:25:15.832Z,3352.50
2019-04-21T11:26:15.904Z,3420.00
2019-04-21T11:27:15.011Z,3313.13
2019-04-21T11:28:14.700Z,3420.00
2019-04-21T11:29:14.970Z,3594.38
2019-04-21T11:30:15.654Z,3667.50
2019-04-21T11:31:15.389Z,3690.00
2019-04-21T11:32:14.779Z,3673.13
2019-04-21T11:33:15.355Z,3678.75
2019-04-21T11:34:15.370Z,3718.13
2019-04-21T11:35:15.050Z,3577.50
2019-04-21T11:36:15.288Z,3510.00
2019-04-21T11:37:14.333Z,3487.50
2019-04-21T11:38:19.036Z,3408.75
2019-04-21T11:39:25.599Z,3453.75
2019-04-21T11:40:17.644Z,3526.88
2019-04-21T11:41:13.912Z,3538.13
2019-04-21T11:42:13.726Z,3594.38
2019-04-21T11:43:13.758Z,3543.75
2019-04-21T11:44:14.094Z,3526.88
2019-04-21T11:45:14.598Z,3560.63
2019-04-21T11:46:13.467Z,3594.38
2019-04-21T11:47:14.296Z,3600.00
2019-04-21T11:48:14.318Z,3583.13
2019-04-21T11:49:13.254Z,3538.13
2019-04-21T11:50:13.191Z,3538.13
2019-04-21T11:51:13.230Z,3526.88
2019-04-21T11:52:13.291Z,3538.13
2019-04-21T11:53:12.992Z,3532.50
2019-04-21T11:54:13.026Z,3397.50
2019-04-21T11:55:14.247Z,3487.50
2019-04-21T11:56:12.791Z,3571.88
2019-04-21T11:57:20.293Z,3571.88
2019-04-21T11:58:13.922Z,3504.38
2019-04-21T11:59:12.591Z,3538.13
2019-04-21T12:00:13.525Z,3515.63
2019-04-21T12:01:13.749Z,3555.00
2019-04-21T12:02:12.392Z,3555.00
2019-04-21T12:03:15.171Z,3577.50
2019-04-21T12:04:13.750Z,3538.13
2019-04-21T12:05:12.192Z,3436.88
2019-04-21T12:06:13.257Z,3442.50
2019-04-21T12:07:13.260Z,3498.75
2019-04-21T12:08:23.077Z,3515.63
2019-04-21T12:09:11.998Z,3510.00
2019-04-21T12:10:11.860Z,3577.50
2019-04-21T12:11:11.781Z,3532.50
2019-04-21T12:12:11.746Z,3532.50
2019-04-21T12:13:12.089Z,3487.50
2019-04-21T12:14:12.081Z,3504.38
2019-04-21T12:15:14.081Z,3526.88
2019-04-21T12:16:12.762Z,3566.25
2019-04-21T12:17:12.104Z,3538.13
2019-04-21T12:18:12.124Z,3521.25
2019-04-21T12:19:12.483Z,3498.75
2019-04-21T12:20:11.181Z,3628.13
2019-04-21T12:21:11.466Z,3538.13
2019-04-21T12:22:18.205Z,3476.25
2019-04-21T12:23:12.110Z,3571.88
2019-04-21T12:24:11.134Z,3560.63
2019-04-21T12:25:11.262Z,3442.50
2019-04-21T12:26:10.782Z,3526.88
2019-04-21T12:27:11.930Z,3555.00
2019-04-21T12:28:12.070Z,3571.88
2019-04-21T12:29:10.581Z,3504.38
2019-04-21T12:30:11.444Z,3414.38
2019-04-21T12:31:11.553Z,3493.13
2019-04-21T12:32:10.381Z,3571.88
2019-04-21T12:33:10.306Z,3566.25
2019-04-21T12:34:10.262Z,3577.50
2019-04-21T12:35:10.174Z,3555.00
2019-04-21T12:36:11.487Z,3526.88
2019-04-21T12:37:10.939Z,3493.13
2019-04-21T12:38:10.869Z,3515.63
2019-04-21T12:39:10.662Z,3397.50
2019-04-21T12:40:10.532Z,3335.63
2019-04-21T12:41:10.679Z,3358.13
2019-04-21T12:42:09.708Z,3408.75
2019-04-21T12:43:10.491Z,3431.25
2019-04-21T12:44:10.736Z,3408.75
2019-04-21T12:45:09.773Z,3493.13
2019-04-21T12:46:09.710Z,3470.63
2019-04-21T12:47:10.073Z,3543.75
2019-04-21T12:48:10.421Z,3594.38
2019-04-21T12:49:09.822Z,3504.38
2019-04-21T12:50:09.184Z,3436.88
2019-04-21T12:51:10.110Z,3481.88
2019-04-21T12:52:09.357Z,3532.50
2019-04-21T12:53:09.799Z,3476.25
2019-04-21T12:54:09.854Z,3436.88
2019-04-21T12:55:09.451Z,3420.00
2019-04-21T12:56:09.484Z,3341.25
2019-04-21T12:57:09.560Z,3403.13
2019-04-21T12:58:08.648Z,3363.75
2019-04-21T12:59:09.918Z,3256.88
2019-04-21T13:00:09.020Z,3352.50
2019-04-21T13:01:09.325Z,3369.38
2019-04-21T13:02:09.505Z,3313.13
2019-04-21T13:03:08.322Z,3268.13
2019-04-21T13:04:08.267Z,3223.13
2019-04-21T13:05:09.422Z,3223.13
2019-04-21T13:06:08.125Z,3273.75
2019-04-21T13:07:08.048Z,3318.75
2019-04-21T13:08:09.163Z,3234.38
2019-04-21T13:09:11.179Z,3138.75
2019-04-21T13:10:08.540Z,3133.13
2019-04-21T13:11:09.486Z,3161.25
2019-04-21T13:12:08.878Z,3172.50
2019-04-21T13:13:08.098Z,3178.13
2019-04-21T13:14:08.251Z,3200.63
2019-04-21T13:15:08.620Z,3166.88
2019-04-21T13:16:07.460Z,3200.63
2019-04-21T13:17:07.623Z,3144.38
2019-04-21T13:18:08.161Z,3110.63
2019-04-21T13:19:07.262Z,3138.75
2019-04-21T13:20:07.343Z,3161.25
2019-04-21T13:21:07.215Z,3093.75
2019-04-21T13:22:07.850Z,3037.50
2019-04-21T13:23:08.029Z,3099.38
2019-04-21T13:24:07.184Z,3088.13
2019-04-21T13:25:07.618Z,3138.75
2019-04-21T13:26:07.983Z,3178.13
2019-04-21T13:27:07.460Z,3217.50
2019-04-21T13:28:06.975Z,3234.38
2019-04-21T13:29:06.599Z,3206.25
2019-04-21T13:30:06.526Z,3178.13
2019-04-21T13:31:06.602Z,3223.13
2019-04-21T13:32:08.406Z,2801.25
2019-04-21T13:33:07.136Z,1395.00
2019-04-21T13:34:06.292Z,489.38
2019-04-21T13:35:06.200Z,286.88
2019-04-21T13:36:07.517Z,247.50